»·PEaware :: N488NX KLAS-KPSP

N488NX :: KLAS-KPSP

FLIGHT INFORMATION

Flight Status: Arrived
Operator: Privately registered:
United States
More flights under this callsign
Pilot: Anonymous 1753 (1753)
Aircraft: CANADAIR CL-600 CHALLENGER
(CL60)
More flights by this aircraft type
Origin: KLAS Harry Reid Intl
United States
Destination: KPSP Palm Springs Intl
United States
More flights between these airports :: More routes between these airports
Route: RADYR2 LVELL CLOWD SBONO1
File this flight plan on PilotEdge
Remarks: RMK / SIMBRIEF
Altitude:
(Current/Filed)
33,000ft
Speed:
(Current/Filed)
468kts
Departed: 13-Nov-23 03:12 PM
Arrived: 13-Nov-23 03:54 PM
Distance/Time
Traveled:
151nm/0:41
Distance/Time
To Go:
Arrived

Flight Plot

Page will automatically refresh every two minutes.

Flight plan parsing failed; only flown route is shown


Map Options




Map Legend


Flown Route
Filed Route
Departure Airport
Arrival Airport
Navaid (VOR, NDB)
Fix

Horizontal Profiles

Position Reports

Time Latitude Longitude Heading Altitude Ground
Speed
13-Nov-23 14:46 36.081638 -115.170710 0 2171ft 0kts
13-Nov-23 14:47 36.081638 -115.170710 0 2171ft 0kts
13-Nov-23 14:48 36.081638 -115.170710 0 2171ft 0kts
13-Nov-23 14:49 36.081638 -115.170710 0 2171ft 0kts
13-Nov-23 14:50 36.081638 -115.170710 0 2171ft 0kts
13-Nov-23 14:51 36.081638 -115.170710 0 2171ft 0kts
13-Nov-23 14:52 36.081638 -115.170710 0 2171ft 0kts
13-Nov-23 14:53 36.081638 -115.170710 0 2171ft 0kts
13-Nov-23 14:54 36.081638 -115.170710 0 2171ft 0kts
13-Nov-23 14:55 36.081638 -115.170710 0 2171ft 0kts
13-Nov-23 14:56 36.081638 -115.170710 0 2171ft 0kts
13-Nov-23 14:57 36.081638 -115.170710 0 2171ft 0kts
13-Nov-23 14:58 36.081637 -115.170710 0 2171ft 0kts
13-Nov-23 14:59 36.081637 -115.170710 0 2171ft 0kts
13-Nov-23 15:01 36.081637 -115.170710 0 2171ft 0kts
13-Nov-23 15:02 36.081637 -115.170710 0 2171ft 0kts
13-Nov-23 15:03 36.081638 -115.170710 0 2171ft 0kts
13-Nov-23 15:04 36.081642 -115.170710 0 2171ft 0kts
13-Nov-23 15:05 36.081754 -115.170137 141 2170ft 8kts
13-Nov-23 15:06 36.085118 -115.167137 26 2155ft 25kts
13-Nov-23 15:07 36.092966 -115.162647 24 2119ft 33kts
13-Nov-23 15:08 36.099016 -115.159176 27 2096ft 1kts
13-Nov-23 15:09 36.099913 -115.157650 84 2090ft 8kts
13-Nov-23 15:10 36.099889 -115.157522 113 2089ft 0kts
13-Nov-23 15:11 36.098419 -115.157184 206 2090ft 17kts
13-Nov-23 15:12 36.061851 -115.177902 204 2633ft 245kts
13-Nov-23 15:13 35.996418 -115.212787 198 7126ft 258kts
13-Nov-23 15:14 35.927657 -115.243684 200 13158ft 261kts
13-Nov-23 15:15 35.858616 -115.274996 202 17973ft 276kts
13-Nov-23 15:16 35.782731 -115.309403 203 21775ft 294kts
13-Nov-23 15:17 35.707404 -115.343459 204 25729ft 292kts
13-Nov-23 15:18 35.629129 -115.378786 205 28781ft 305kts
13-Nov-23 15:19 35.541062 -115.383377 183 31312ft 330kts
13-Nov-23 15:20 35.446726 -115.376488 184 33189ft 347kts
13-Nov-23 15:21 35.346427 -115.369547 184 33257ft 383kts
13-Nov-23 15:22 35.233733 -115.361626 183 33258ft 414kts
13-Nov-23 15:23 35.119458 -115.353452 183 33271ft 407kts
13-Nov-23 15:24 35.009012 -115.345703 183 31777ft 392kts
13-Nov-23 15:24 34.916710 -115.339369 182 28762ft 401kts
13-Nov-23 15:26 34.786483 -115.332278 192 24827ft 388kts
13-Nov-23 15:27 34.691269 -115.370658 203 24685ft 350kts
13-Nov-23 15:28 34.600857 -115.409987 203 23375ft 339kts
13-Nov-23 15:29 34.512924 -115.448335 202 21272ft 319kts
13-Nov-23 15:29 34.445653 -115.477555 202 20201ft 302kts
13-Nov-23 15:31 34.352355 -115.518176 202 18762ft 320kts
13-Nov-23 15:32 34.272875 -115.567588 213 17748ft 320kts
13-Nov-23 15:33 34.198804 -115.626821 219 16778ft 315kts
13-Nov-23 15:33 34.143844 -115.685245 220 15977ft 313kts
13-Nov-23 15:35 34.067641 -115.766012 220 14872ft 309kts
13-Nov-23 15:36 34.002927 -115.834327 219 13925ft 306kts
13-Nov-23 15:36 33.949535 -115.890473 220 12661ft 297kts
13-Nov-23 15:37 33.890052 -115.953005 220 11475ft 262kts
13-Nov-23 15:38 33.835966 -116.010923 219 9897ft 261kts
13-Nov-23 15:40 33.811451 -116.107258 260 8136ft 261kts
13-Nov-23 15:40 33.804600 -116.176202 260 7233ft 237kts
13-Nov-23 15:41 33.796279 -116.252246 260 5921ft 223kts
13-Nov-23 15:42 33.806944 -116.320288 324 4572ft 226kts
13-Nov-23 15:43 33.853522 -116.363038 311 4164ft 202kts
13-Nov-23 15:44 33.890234 -116.411033 317 3299ft 182kts
13-Nov-23 15:45 33.926478 -116.448264 302 3030ft 165kts
13-Nov-23 15:46 33.944777 -116.496253 278 3000ft 140kts
13-Nov-23 15:47 33.947322 -116.541444 259 3017ft 131kts
13-Nov-23 15:48 33.942131 -116.584580 257 3004ft 128kts
13-Nov-23 15:49 33.924269 -116.597439 128 2184ft 115kts
13-Nov-23 15:50 33.898449 -116.570315 143 2061ft 132kts
13-Nov-23 15:51 33.870153 -116.543697 143 1360ft 132kts
13-Nov-23 15:52 33.840492 -116.517288 142 650ft 131kts
13-Nov-23 15:53 33.823584 -116.501405 63 408ft 7kts
13-Nov-23 15:54 33.823956 -116.500714 56 407ft 0kts
13-Nov-23 15:55 33.824819 -116.498658 144 405ft 0kts
13-Nov-23 15:56 33.824819 -116.498658 144 405ft 0kts

Navigation Log

Ident Type
Flight plan parsing failed, navigation log unavailable